Time;durP1;ratioP1;P1;durP2;ratioP2;P2;SDS_P1;SDS_P2;PMS_P1;PMS_P2;Temp;Humidity;BMP_temperature;BMP_pressure;BME280_temperature;BME280_humidity;BME280_pressure;Samples;Min_cycle;Max_cycle;Signal;HPM_P1;HPM_P2
2022/01/06 00:00:32;;;;;;;0.20;0.20;;;;;;;;;;1725124;28;20230;-69
2022/01/06 00:01:23;;;;;;;0.20;0.20;;;;;;;;;;1725681;28;20221;-69
2022/01/06 00:02:15;;;;;;;0.10;0.10;;;;;;;;;;1724560;28;20212;-69
2022/01/06 00:03:07;;;;;;;0.15;0.15;;;;;;;;;;1725688;28;20628;-69
2022/01/06 00:03:59;;;;;;;0.00;0.00;;;;;;;;;;1725958;28;20511;-69
2022/01/06 00:04:50;;;;;;;0.00;0.00;;;;;;;;;;1727394;28;20638;-69
2022/01/06 00:05:42;;;;;;;0.10;0.10;;;;;;;;;;1723803;28;20307;-69
2022/01/06 00:06:38;;;;;;;0.00;0.00;;;;;;;;;;1725110;28;20229;-69
2022/01/06 00:07:30;;;;;;;0.20;0.20;;;;;;;;;;1725138;28;20228;-69
2022/01/06 00:08:23;;;;;;;0.10;0.10;;;;;;;;;;1724844;28;20210;-69
2022/01/06 00:09:17;;;;;;;0.05;0.05;;;;;;;;;;1725231;28;20213;-69
2022/01/06 00:10:12;;;;;;;0.00;0.00;;;;;;;;;;1724604;28;20210;-69
2022/01/06 00:11:06;;;;;;;0.10;0.10;;;;;;;;;;1724428;28;20240;-69
2022/01/06 00:11:57;;;;;;;0.20;0.20;;;;;;;;;;1724192;28;20235;-69
2022/01/06 00:13:08;;;;;;;0.00;0.00;;;;;;;;;;1725535;28;20625;-70
2022/01/06 00:14:04;;;;;;;0.00;0.00;;;;;;;;;;1725161;28;20292;-70
2022/01/06 00:15:03;;;;;;;0.00;0.00;;;;;;;;;;1725244;28;20216;-70
2022/01/06 00:16:03;;;;;;;0.03;0.03;;;;;;;;;;1724698;28;20644;-70
2022/01/06 00:17:20;;;;;;;0.10;0.10;;;;;;;;;;1725031;28;20227;-69
2022/01/06 00:18:19;;;;;;;0.20;0.20;;;;;;;;;;1723435;28;20207;-69
2022/01/06 00:23:49;;;;;;;0.00;0.00;;;;;;;;;;1716745;28;20587;-70
2022/01/06 00:24:40;;;;;;;0.10;0.10;;;;;;;;;;1718652;28;20215;-70
2022/01/06 00:25:33;;;;;;;0.17;0.17;;;;;;;;;;1717558;28;20215;-70
2022/01/06 00:26:24;;;;;;;0.10;0.10;;;;;;;;;;1719065;28;20623;-70
2022/01/06 00:27:16;;;;;;;0.10;0.10;;;;;;;;;;1717757;28;20244;-70
2022/01/06 00:28:07;;;;;;;0.00;0.00;;;;;;;;;;1718998;28;20551;-70
2022/01/06 00:28:59;;;;;;;0.40;0.40;;;;;;;;;;1718380;28;20300;-70
2022/01/06 00:29:50;;;;;;;0.10;0.10;;;;;;;;;;1718360;28;20234;-70
2022/01/06 00:30:42;;;;;;;0.00;0.00;;;;;;;;;;1716855;28;20574;-70
2022/01/06 00:31:34;;;;;;;0.10;0.10;;;;;;;;;;1718564;28;20486;-70
2022/01/06 00:32:26;;;;;;;0.10;0.10;;;;;;;;;;1718472;28;20202;-70
2022/01/06 00:33:18;;;;;;;0.00;0.00;;;;;;;;;;1718380;28;20288;-70
2022/01/06 00:34:10;;;;;;;0.00;0.00;;;;;;;;;;1718532;28;20248;-70
2022/01/06 00:35:02;;;;;;;0.00;0.00;;;;;;;;;;1718288;28;20217;-69
2022/01/06 00:35:54;;;;;;;0.00;0.00;;;;;;;;;;1717470;28;20681;-69
2022/01/06 00:36:46;;;;;;;0.00;0.00;;;;;;;;;;1718066;28;20228;-69
2022/01/06 00:37:37;;;;;;;0.10;0.10;;;;;;;;;;1718452;28;20198;-69
2022/01/06 00:38:29;;;;;;;0.20;0.20;;;;;;;;;;1718119;28;20211;-69
2022/01/06 00:39:27;;;;;;;0.00;0.00;;;;;;;;;;1718726;28;20205;-69
2022/01/06 00:40:19;;;;;;;0.00;0.00;;;;;;;;;;1718102;28;20219;-69
2022/01/06 00:41:10;;;;;;;0.10;0.10;;;;;;;;;;1719117;28;20237;-70
2022/01/06 00:42:02;;;;;;;0.00;0.00;;;;;;;;;;1718916;28;20308;-70
2022/01/06 00:42:54;;;;;;;0.00;0.00;;;;;;;;;;1719920;28;20218;-70
2022/01/06 00:43:46;;;;;;;0.10;0.10;;;;;;;;;;1719265;28;20210;-70
2022/01/06 00:44:38;;;;;;;0.00;0.00;;;;;;;;;;1716670;28;20207;-70
2022/01/06 00:45:30;;;;;;;0.00;0.00;;;;;;;;;;1718985;28;20195;-70
2022/01/06 00:46:22;;;;;;;0.10;0.10;;;;;;;;;;1720274;28;20658;-69
2022/01/06 00:47:13;;;;;;;0.10;0.10;;;;;;;;;;1719424;28;20276;-69
2022/01/06 00:48:07;;;;;;;0.00;0.00;;;;;;;;;;1719518;28;20242;-70
2022/01/06 00:48:58;;;;;;;0.10;0.10;;;;;;;;;;1718449;28;20244;-69
2022/01/06 00:49:50;;;;;;;0.00;0.00;;;;;;;;;;1720164;28;20660;-69
2022/01/06 00:50:43;;;;;;;0.10;0.10;;;;;;;;;;1718816;28;20232;-70
2022/01/06 00:51:35;;;;;;;0.10;0.10;;;;;;;;;;1717097;28;20766;-70
2022/01/06 00:52:26;;;;;;;0.10;0.10;;;;;;;;;;1719434;28;20212;-70
2022/01/06 00:53:19;;;;;;;0.08;0.08;;;;;;;;;;1719685;28;20219;-70
2022/01/06 00:54:10;;;;;;;0.10;0.10;;;;;;;;;;1718701;28;20590;-70
2022/01/06 00:55:03;;;;;;;0.10;0.10;;;;;;;;;;1718800;28;20646;-70
2022/01/06 00:55:55;;;;;;;0.00;0.00;;;;;;;;;;1718235;28;20248;-70
2022/01/06 00:56:47;;;;;;;0.10;0.10;;;;;;;;;;1719342;28;20212;-70
2022/01/06 00:57:38;;;;;;;0.00;0.00;;;;;;;;;;1719487;28;20203;-70
2022/01/06 00:58:30;;;;;;;0.10;0.10;;;;;;;;;;1719305;28;20286;-70
2022/01/06 00:59:22;;;;;;;0.00;0.00;;;;;;;;;;1719455;28;20219;-70
2022/01/06 01:00:14;;;;;;;0.00;0.00;;;;;;;;;;1718537;28;20339;-70
2022/01/06 01:01:05;;;;;;;0.10;0.10;;;;;;;;;;1717940;28;20252;-69
2022/01/06 01:01:58;;;;;;;0.00;0.00;;;;;;;;;;1719365;28;20215;-69
2022/01/06 01:02:49;;;;;;;0.10;0.10;;;;;;;;;;1719578;28;20201;-69
2022/01/06 01:03:41;;;;;;;0.00;0.00;;;;;;;;;;1719208;28;20232;-69
2022/01/06 01:04:32;;;;;;;0.10;0.10;;;;;;;;;;1719832;28;20213;-69
2022/01/06 01:05:24;;;;;;;0.10;0.10;;;;;;;;;;1718564;28;20241;-70
2022/01/06 01:06:16;;;;;;;0.10;0.10;;;;;;;;;;1719023;28;20215;-69
2022/01/06 01:07:08;;;;;;;0.13;0.13;;;;;;;;;;1718536;28;20209;-70
2022/01/06 01:07:59;;;;;;;0.00;0.00;;;;;;;;;;1719777;28;20239;-69
2022/01/06 01:08:51;;;;;;;0.00;0.00;;;;;;;;;;1718786;28;20197;-69
2022/01/06 01:11:46;;;;;;;0.00;0.00;;;;;;;;;;1710946;28;20197;-69
2022/01/06 01:12:42;;;;;;;0.10;0.10;;;;;;;;;;1715766;28;20239;-70
2022/01/06 01:13:43;;;;;;;0.10;0.10;;;;;;;;;;1719189;28;20212;-70
2022/01/06 01:14:44;;;;;;;0.20;0.20;;;;;;;;;;1715946;28;20303;-70
2022/01/06 01:15:44;;;;;;;0.20;0.20;;;;;;;;;;1718770;28;20193;-69
2022/01/06 01:16:35;;;;;;;0.10;0.10;;;;;;;;;;1718352;28;20206;-69
2022/01/06 01:17:27;;;;;;;0.10;0.10;;;;;;;;;;1719554;28;20614;-69
2022/01/06 01:18:20;;;;;;;0.10;0.10;;;;;;;;;;1718803;28;20504;-69
2022/01/06 01:19:13;;;;;;;0.00;0.00;;;;;;;;;;1716625;28;20615;-69
2022/01/06 01:20:05;;;;;;;0.20;0.20;;;;;;;;;;1714577;28;20263;-69
2022/01/06 01:20:57;;;;;;;0.00;0.00;;;;;;;;;;1717878;28;20235;-69
2022/01/06 01:21:48;;;;;;;0.10;0.10;;;;;;;;;;1719043;28;20212;-69
2022/01/06 01:22:40;;;;;;;0.10;0.10;;;;;;;;;;1719394;28;20903;-70
2022/01/06 01:23:31;;;;;;;0.20;0.20;;;;;;;;;;1719265;28;20205;-69
2022/01/06 01:24:24;;;;;;;0.00;0.00;;;;;;;;;;1718951;28;20224;-69
2022/01/06 01:25:15;;;;;;;0.10;0.10;;;;;;;;;;1718828;28;20559;-70
2022/01/06 01:26:08;;;;;;;0.10;0.10;;;;;;;;;;1718065;28;20864;-69
2022/01/06 01:26:59;;;;;;;0.03;0.03;;;;;;;;;;1718960;28;20205;-69
2022/01/06 01:27:55;;;;;;;0.10;0.10;;;;;;;;;;1719682;28;20225;-69
2022/01/06 01:28:46;;;;;;;0.00;0.00;;;;;;;;;;1719102;28;20201;-69
2022/01/06 01:29:50;;;;;;;0.30;0.30;;;;;;;;;;1716286;28;20686;-69
2022/01/06 01:30:53;;;;;;;0.00;0.00;;;;;;;;;;1717916;28;20233;-69
2022/01/06 01:31:47;;;;;;;0.00;0.00;;;;;;;;;;1718718;28;20185;-69
2022/01/06 01:32:39;;;;;;;0.10;0.10;;;;;;;;;;1718656;28;20200;-69
2022/01/06 01:33:32;;;;;;;0.10;0.10;;;;;;;;;;1719245;28;20260;-69
2022/01/06 01:34:26;;;;;;;0.00;0.00;;;;;;;;;;1719446;28;20197;-69
2022/01/06 01:35:17;;;;;;;0.10;0.10;;;;;;;;;;1718729;28;20250;-69
2022/01/06 01:36:10;;;;;;;0.00;0.00;;;;;;;;;;1717664;28;20349;-69
2022/01/06 01:37:01;;;;;;;0.00;0.00;;;;;;;;;;1717818;28;20256;-69
2022/01/06 01:37:53;;;;;;;0.00;0.00;;;;;;;;;;1719177;28;20221;-69
2022/01/06 01:38:44;;;;;;;0.00;0.00;;;;;;;;;;1719027;28;20223;-69
2022/01/06 01:39:36;;;;;;;0.00;0.00;;;;;;;;;;1719427;28;20250;-69
2022/01/06 01:40:27;;;;;;;0.10;0.10;;;;;;;;;;1718103;28;20340;-70
2022/01/06 01:41:20;;;;;;;0.10;0.10;;;;;;;;;;1719411;28;20773;-70
2022/01/06 01:42:11;;;;;;;0.10;0.10;;;;;;;;;;1718775;28;20205;-70
2022/01/06 01:43:05;;;;;;;0.20;0.20;;;;;;;;;;1719303;28;20209;-70
2022/01/06 01:43:57;;;;;;;0.10;0.10;;;;;;;;;;1718605;28;20543;-69
2022/01/06 01:44:49;;;;;;;0.00;0.00;;;;;;;;;;1719551;28;20299;-70
2022/01/06 01:45:46;;;;;;;0.00;0.00;;;;;;;;;;1718630;28;20228;-70
2022/01/06 01:46:43;;;;;;;0.08;0.08;;;;;;;;;;1719375;28;20232;-70
2022/01/06 01:47:40;;;;;;;0.00;0.00;;;;;;;;;;1719273;28;20210;-70
2022/01/06 01:48:35;;;;;;;0.00;0.00;;;;;;;;;;1719276;28;20201;-70
2022/01/06 01:49:32;;;;;;;0.10;0.10;;;;;;;;;;1718353;28;20244;-70
2022/01/06 01:50:24;;;;;;;0.00;0.00;;;;;;;;;;1718122;28;20199;-70
2022/01/06 01:51:16;;;;;;;0.10;0.10;;;;;;;;;;1716158;28;20581;-70
2022/01/06 01:52:08;;;;;;;0.08;0.08;;;;;;;;;;1717286;28;20242;-70
2022/01/06 01:52:59;;;;;;;0.20;0.20;;;;;;;;;;1716826;28;20209;-70
2022/01/06 01:53:51;;;;;;;0.00;0.00;;;;;;;;;;1717391;28;20211;-70
2022/01/06 01:54:43;;;;;;;0.00;0.00;;;;;;;;;;1719517;28;20237;-70
2022/01/06 01:55:36;;;;;;;0.05;0.05;;;;;;;;;;1717666;28;20206;-70
2022/01/06 01:56:28;;;;;;;0.10;0.10;;;;;;;;;;1719224;28;20783;-70
2022/01/06 01:57:20;;;;;;;0.00;0.00;;;;;;;;;;1719024;28;20212;-70
2022/01/06 01:58:13;;;;;;;0.00;0.00;;;;;;;;;;1719256;28;20216;-70
2022/01/06 01:59:05;;;;;;;0.00;0.00;;;;;;;;;;1719094;28;20209;-70
2022/01/06 01:59:57;;;;;;;0.10;0.10;;;;;;;;;;1718754;28;20211;-70
2022/01/06 02:00:49;;;;;;;0.00;0.00;;;;;;;;;;1718758;28;20393;-70
2022/01/06 02:01:42;;;;;;;0.10;0.10;;;;;;;;;;1718215;28;20266;-70
2022/01/06 02:02:34;;;;;;;0.00;0.00;;;;;;;;;;1718938;28;20213;-70
2022/01/06 02:03:25;;;;;;;0.00;0.00;;;;;;;;;;1719235;28;20206;-70
2022/01/06 02:04:17;;;;;;;0.00;0.00;;;;;;;;;;1719056;28;20213;-70
2022/01/06 02:05:11;;;;;;;0.20;0.20;;;;;;;;;;1719115;28;20251;-70
2022/01/06 02:06:04;;;;;;;0.10;0.10;;;;;;;;;;1718158;28;20645;-70
2022/01/06 02:06:55;;;;;;;0.00;0.00;;;;;;;;;;1718752;28;20853;-70
2022/01/06 02:07:47;;;;;;;0.00;0.00;;;;;;;;;;1719010;28;20214;-70
2022/01/06 02:08:38;;;;;;;0.00;0.00;;;;;;;;;;1718306;28;20214;-70
2022/01/06 02:09:30;;;;;;;0.00;0.00;;;;;;;;;;1719550;28;20229;-70
2022/01/06 02:10:22;;;;;;;0.30;0.30;;;;;;;;;;1718252;28;20205;-70
2022/01/06 02:11:14;;;;;;;0.10;0.10;;;;;;;;;;1718942;28;20703;-69
2022/01/06 02:12:06;;;;;;;0.00;0.00;;;;;;;;;;1718599;28;20211;-69
2022/01/06 02:13:00;;;;;;;0.10;0.10;;;;;;;;;;1715745;28;20214;-69
2022/01/06 02:13:55;;;;;;;0.00;0.00;;;;;;;;;;1718320;28;20620;-69
2022/01/06 02:14:47;;;;;;;0.00;0.00;;;;;;;;;;1718669;28;20212;-69
2022/01/06 02:15:38;;;;;;;0.17;0.17;;;;;;;;;;1718009;28;20221;-70
2022/01/06 02:16:30;;;;;;;0.10;0.10;;;;;;;;;;1719347;28;20203;-70
2022/01/06 02:17:22;;;;;;;0.00;0.00;;;;;;;;;;1718700;28;20386;-70
2022/01/06 02:18:14;;;;;;;0.00;0.00;;;;;;;;;;1719263;28;20207;-70
2022/01/06 02:19:05;;;;;;;0.00;0.00;;;;;;;;;;1718884;28;20212;-69
2022/01/06 02:19:59;;;;;;;0.20;0.20;;;;;;;;;;1718266;28;20211;-70
2022/01/06 02:20:50;;;;;;;0.25;0.25;;;;;;;;;;1717998;28;20482;-69
2022/01/06 02:21:43;;;;;;;0.10;0.10;;;;;;;;;;1718679;28;20272;-69
2022/01/06 02:22:34;;;;;;;0.05;0.05;;;;;;;;;;1718927;28;20209;-69
2022/01/06 02:23:26;;;;;;;0.00;0.00;;;;;;;;;;1718767;28;20206;-69
2022/01/06 02:24:17;;;;;;;0.10;0.10;;;;;;;;;;1718891;28;20226;-69
2022/01/06 02:25:12;;;;;;;0.10;0.10;;;;;;;;;;1718865;28;20209;-69
2022/01/06 02:26:03;;;;;;;0.10;0.10;;;;;;;;;;1717865;28;20319;-69
2022/01/06 02:26:55;;;;;;;0.10;0.10;;;;;;;;;;1717732;28;20294;-69
2022/01/06 02:27:48;;;;;;;0.10;0.10;;;;;;;;;;1719065;28;20205;-69
2022/01/06 02:28:41;;;;;;;0.08;0.08;;;;;;;;;;1718687;28;20344;-70
2022/01/06 02:29:32;;;;;;;0.10;0.10;;;;;;;;;;1719078;28;20247;-69
2022/01/06 02:30:25;;;;;;;0.10;0.10;;;;;;;;;;1718228;28;20236;-70
2022/01/06 02:31:16;;;;;;;0.00;0.00;;;;;;;;;;1718571;28;20286;-69
2022/01/06 02:32:09;;;;;;;0.17;0.17;;;;;;;;;;1718310;28;20213;-69
2022/01/06 02:33:01;;;;;;;0.10;0.10;;;;;;;;;;1715505;28;20209;-69
2022/01/06 02:33:53;;;;;;;0.00;0.00;;;;;;;;;;1718440;28;20223;-70
2022/01/06 02:34:45;;;;;;;0.10;0.10;;;;;;;;;;1719209;28;20205;-69
2022/01/06 02:35:39;;;;;;;0.15;0.15;;;;;;;;;;1719440;28;20201;-69
2022/01/06 02:36:30;;;;;;;0.00;0.00;;;;;;;;;;1725941;28;20208;-69
2022/01/06 02:37:22;;;;;;;0.10;0.10;;;;;;;;;;1725561;28;20626;-69
2022/01/06 02:38:13;;;;;;;0.00;0.00;;;;;;;;;;1725787;28;20299;-69
2022/01/06 02:39:06;;;;;;;0.00;0.00;;;;;;;;;;1724843;28;20211;-69
2022/01/06 02:39:57;;;;;;;0.00;0.00;;;;;;;;;;1725265;28;20209;-69
2022/01/06 02:40:49;;;;;;;0.00;0.00;;;;;;;;;;1725308;28;20231;-70
2022/01/06 02:41:41;;;;;;;0.10;0.10;;;;;;;;;;1725102;28;20215;-70
2022/01/06 02:42:33;;;;;;;0.10;0.10;;;;;;;;;;1725535;28;20622;-70
2022/01/06 02:43:25;;;;;;;0.00;0.00;;;;;;;;;;1725523;28;20239;-70
2022/01/06 02:44:21;;;;;;;0.10;0.10;;;;;;;;;;1725410;28;20235;-70
2022/01/06 02:45:13;;;;;;;0.00;0.00;;;;;;;;;;1725013;28;20247;-70
2022/01/06 02:46:05;;;;;;;0.10;0.10;;;;;;;;;;1724607;28;20240;-70
2022/01/06 02:46:57;;;;;;;0.10;0.10;;;;;;;;;;1725390;28;20236;-70
2022/01/06 02:47:49;;;;;;;0.00;0.00;;;;;;;;;;1724613;28;20207;-70
2022/01/06 02:48:41;;;;;;;0.10;0.10;;;;;;;;;;1724855;28;20227;-70
2022/01/06 02:49:32;;;;;;;0.00;0.00;;;;;;;;;;1725962;28;20593;-70
2022/01/06 02:50:25;;;;;;;0.05;0.05;;;;;;;;;;1724778;28;20210;-71
2022/01/06 02:51:18;;;;;;;0.00;0.00;;;;;;;;;;1722741;28;20496;-70
2022/01/06 02:52:10;;;;;;;0.00;0.00;;;;;;;;;;1723848;28;20205;-70
2022/01/06 02:53:01;;;;;;;0.00;0.00;;;;;;;;;;1726070;28;20234;-70
2022/01/06 02:53:54;;;;;;;0.10;0.10;;;;;;;;;;1725018;28;20205;-70
2022/01/06 02:54:45;;;;;;;0.00;0.00;;;;;;;;;;1725662;28;20619;-70
2022/01/06 02:55:38;;;;;;;0.05;0.05;;;;;;;;;;1724674;28;20647;-69
2022/01/06 02:56:32;;;;;;;0.20;0.20;;;;;;;;;;1725647;28;20206;-69
2022/01/06 02:57:24;;;;;;;0.10;0.10;;;;;;;;;;1724335;28;20290;-70
2022/01/06 02:58:15;;;;;;;0.10;0.10;;;;;;;;;;1725557;28;20211;-69
2022/01/06 02:59:07;;;;;;;0.00;0.00;;;;;;;;;;1725573;28;20698;-69
2022/01/06 02:59:59;;;;;;;0.00;0.00;;;;;;;;;;1725255;28;20207;-69
2022/01/06 03:00:51;;;;;;;0.00;0.00;;;;;;;;;;1724933;28;20286;-70
2022/01/06 03:01:43;;;;;;;0.00;0.00;;;;;;;;;;1725223;28;20292;-70
2022/01/06 03:02:36;;;;;;;0.00;0.00;;;;;;;;;;1725210;28;20201;-70
2022/01/06 03:03:27;;;;;;;0.00;0.00;;;;;;;;;;1724629;28;20542;-70
2022/01/06 03:04:20;;;;;;;0.10;0.10;;;;;;;;;;1724766;28;20299;-70
2022/01/06 03:05:12;;;;;;;0.13;0.13;;;;;;;;;;1725442;28;20228;-70
2022/01/06 03:06:04;;;;;;;0.10;0.10;;;;;;;;;;1724467;28;20236;-70
2022/01/06 03:06:57;;;;;;;0.00;0.00;;;;;;;;;;1725003;28;20241;-70
2022/01/06 03:07:49;;;;;;;0.00;0.00;;;;;;;;;;1725600;28;20277;-70
2022/01/06 03:08:40;;;;;;;0.10;0.10;;;;;;;;;;1724732;28;20241;-70
2022/01/06 03:09:38;;;;;;;0.10;0.10;;;;;;;;;;1725026;28;20746;-70
2022/01/06 03:10:35;;;;;;;0.10;0.10;;;;;;;;;;1724264;28;20179;-70
2022/01/06 03:11:27;;;;;;;0.00;0.00;;;;;;;;;;1725500;28;20234;-70
2022/01/06 03:12:23;;;;;;;0.45;0.45;;;;;;;;;;1725029;28;20207;-70
2022/01/06 03:13:15;;;;;;;0.00;0.00;;;;;;;;;;1725360;28;20222;-70
2022/01/06 03:14:06;;;;;;;0.10;0.10;;;;;;;;;;1725309;28;20223;-70
2022/01/06 03:14:58;;;;;;;0.08;0.08;;;;;;;;;;1724643;28;20208;-70
2022/01/06 03:15:50;;;;;;;0.08;0.08;;;;;;;;;;1724518;28;20256;-70
2022/01/06 03:16:42;;;;;;;0.10;0.10;;;;;;;;;;1725309;28;20235;-70
2022/01/06 03:17:33;;;;;;;0.00;0.00;;;;;;;;;;1725349;28;20212;-70
2022/01/06 03:18:25;;;;;;;0.08;0.08;;;;;;;;;;1725311;28;20292;-70
2022/01/06 03:19:16;;;;;;;0.10;0.10;;;;;;;;;;1725363;28;20204;-70
2022/01/06 03:20:10;;;;;;;0.08;0.08;;;;;;;;;;1725041;28;20247;-70
2022/01/06 03:21:02;;;;;;;0.00;0.00;;;;;;;;;;1724010;28;20238;-70
2022/01/06 03:21:54;;;;;;;0.00;0.00;;;;;;;;;;1724782;28;20212;-70
2022/01/06 03:22:46;;;;;;;0.00;0.00;;;;;;;;;;1725348;28;20202;-70
2022/01/06 03:23:39;;;;;;;0.10;0.10;;;;;;;;;;1725091;28;21729;-70
2022/01/06 03:24:30;;;;;;;0.00;0.00;;;;;;;;;;1725605;28;20208;-70
2022/01/06 03:25:22;;;;;;;0.08;0.08;;;;;;;;;;1725219;28;20627;-70
2022/01/06 03:26:14;;;;;;;0.20;0.20;;;;;;;;;;1718701;28;20677;-70
2022/01/06 03:27:06;;;;;;;0.10;0.10;;;;;;;;;;1717866;28;20650;-69
2022/01/06 03:27:57;;;;;;;0.00;0.00;;;;;;;;;;1718440;28;20222;-69
2022/01/06 03:28:49;;;;;;;0.10;0.10;;;;;;;;;;1718100;28;20272;-70
2022/01/06 03:29:40;;;;;;;0.00;0.00;;;;;;;;;;1718852;28;20653;-69
2022/01/06 03:30:32;;;;;;;0.00;0.00;;;;;;;;;;1717910;28;20203;-70
2022/01/06 03:31:24;;;;;;;0.00;0.00;;;;;;;;;;1721145;28;20272;-70
2022/01/06 03:32:16;;;;;;;0.13;0.13;;;;;;;;;;1719189;28;20211;-70
2022/01/06 03:33:07;;;;;;;0.00;0.00;;;;;;;;;;1720705;28;20429;-70
2022/01/06 03:33:59;;;;;;;0.00;0.00;;;;;;;;;;1719276;28;20233;-70
2022/01/06 03:34:51;;;;;;;0.17;0.17;;;;;;;;;;1719907;28;20200;-70
2022/01/06 03:35:43;;;;;;;0.13;0.13;;;;;;;;;;1719428;28;20227;-70
2022/01/06 03:36:34;;;;;;;0.00;0.00;;;;;;;;;;1725529;28;20216;-70
2022/01/06 03:37:27;;;;;;;0.10;0.10;;;;;;;;;;1725212;28;20212;-70
2022/01/06 03:38:19;;;;;;;0.00;0.00;;;;;;;;;;1724955;28;20212;-70
2022/01/06 03:39:11;;;;;;;0.10;0.10;;;;;;;;;;1724062;28;20201;-70
2022/01/06 03:40:04;;;;;;;0.15;0.15;;;;;;;;;;1724496;28;20208;-70
2022/01/06 03:40:57;;;;;;;0.05;0.05;;;;;;;;;;1724905;28;20918;-70
2022/01/06 03:41:48;;;;;;;0.00;0.00;;;;;;;;;;1724904;28;20208;-70
2022/01/06 03:42:40;;;;;;;0.10;0.10;;;;;;;;;;1725182;28;20230;-70
2022/01/06 03:43:32;;;;;;;0.00;0.00;;;;;;;;;;1725019;28;20300;-70
2022/01/06 03:44:24;;;;;;;0.20;0.20;;;;;;;;;;1725104;28;20514;-70
2022/01/06 03:45:16;;;;;;;0.10;0.10;;;;;;;;;;1724905;28;20208;-70
2022/01/06 03:46:08;;;;;;;0.00;0.00;;;;;;;;;;1722861;28;20269;-70
2022/01/06 03:46:59;;;;;;;0.10;0.10;;;;;;;;;;1724857;28;20210;-70
2022/01/06 03:47:52;;;;;;;0.10;0.10;;;;;;;;;;1725484;28;20800;-70
2022/01/06 03:48:43;;;;;;;0.00;0.00;;;;;;;;;;1724200;28;20202;-70
2022/01/06 03:49:35;;;;;;;0.00;0.00;;;;;;;;;;1725619;28;20678;-70
2022/01/06 03:50:26;;;;;;;0.10;0.10;;;;;;;;;;1723913;28;20281;-69
2022/01/06 03:51:20;;;;;;;0.00;0.00;;;;;;;;;;1723456;28;20270;-69
2022/01/06 03:52:12;;;;;;;0.00;0.00;;;;;;;;;;1723601;28;20305;-69
2022/01/06 03:53:04;;;;;;;0.20;0.20;;;;;;;;;;1725578;28;20679;-69
2022/01/06 03:53:56;;;;;;;0.15;0.15;;;;;;;;;;1724546;28;20213;-69
2022/01/06 03:54:48;;;;;;;0.10;0.10;;;;;;;;;;1725291;28;20208;-69
2022/01/06 03:55:40;;;;;;;0.00;0.00;;;;;;;;;;1724991;28;20269;-70
2022/01/06 03:56:32;;;;;;;0.10;0.10;;;;;;;;;;1725344;28;20623;-70
2022/01/06 03:57:23;;;;;;;0.05;0.05;;;;;;;;;;1724883;28;20204;-70
2022/01/06 03:58:15;;;;;;;0.10;0.10;;;;;;;;;;1724545;28;20205;-70
2022/01/06 03:59:06;;;;;;;0.10;0.10;;;;;;;;;;1724291;28;20650;-70
2022/01/06 03:59:59;;;;;;;0.30;0.30;;;;;;;;;;1724893;28;20220;-70
2022/01/06 04:00:50;;;;;;;0.00;0.00;;;;;;;;;;1724614;28;20242;-69
2022/01/06 04:01:42;;;;;;;0.00;0.00;;;;;;;;;;1724986;28;20246;-69
2022/01/06 04:02:34;;;;;;;0.00;0.00;;;;;;;;;;1723994;28;20215;-69
2022/01/06 04:03:26;;;;;;;0.00;0.00;;;;;;;;;;1724733;28;20263;-69
2022/01/06 04:04:18;;;;;;;0.00;0.00;;;;;;;;;;1724356;28;20208;-69
2022/01/06 04:05:11;;;;;;;0.00;0.00;;;;;;;;;;1725158;28;20659;-69
2022/01/06 04:06:03;;;;;;;0.00;0.00;;;;;;;;;;1724230;28;20563;-69
2022/01/06 04:06:55;;;;;;;0.00;0.00;;;;;;;;;;1724983;28;20209;-69
2022/01/06 04:07:46;;;;;;;0.10;0.10;;;;;;;;;;1725338;28;20521;-69
2022/01/06 04:08:38;;;;;;;0.00;0.00;;;;;;;;;;1724921;28;20817;-69
2022/01/06 04:09:31;;;;;;;0.10;0.10;;;;;;;;;;1724213;28;20212;-69
2022/01/06 04:10:23;;;;;;;0.20;0.20;;;;;;;;;;1723760;28;20596;-70
2022/01/06 04:11:15;;;;;;;0.10;0.10;;;;;;;;;;1724642;28;20579;-70
2022/01/06 04:12:09;;;;;;;0.20;0.20;;;;;;;;;;1724770;28;20532;-70
2022/01/06 04:13:01;;;;;;;0.10;0.10;;;;;;;;;;1722400;28;20213;-70
2022/01/06 04:13:54;;;;;;;0.10;0.10;;;;;;;;;;1724457;28;20209;-70
2022/01/06 04:14:45;;;;;;;0.10;0.10;;;;;;;;;;1725356;28;20218;-70
2022/01/06 04:15:37;;;;;;;0.00;0.00;;;;;;;;;;1724321;28;20206;-69
2022/01/06 04:16:30;;;;;;;0.10;0.10;;;;;;;;;;1724558;28;20217;-69
2022/01/06 04:17:22;;;;;;;0.00;0.00;;;;;;;;;;1724739;28;20212;-69
2022/01/06 04:18:13;;;;;;;0.00;0.00;;;;;;;;;;1725334;28;20206;-69
2022/01/06 04:19:05;;;;;;;0.00;0.00;;;;;;;;;;1724821;28;20229;-69
2022/01/06 04:19:56;;;;;;;0.10;0.10;;;;;;;;;;1724843;28;20216;-69
2022/01/06 04:20:49;;;;;;;0.00;0.00;;;;;;;;;;1724863;28;20224;-69
2022/01/06 04:21:40;;;;;;;0.00;0.00;;;;;;;;;;1724823;28;20219;-69
2022/01/06 04:22:32;;;;;;;0.10;0.10;;;;;;;;;;1724449;28;20226;-69
2022/01/06 04:23:23;;;;;;;0.00;0.00;;;;;;;;;;1724868;28;20556;-69
2022/01/06 04:24:15;;;;;;;0.00;0.00;;;;;;;;;;1724946;28;20509;-69
2022/01/06 04:25:10;;;;;;;0.00;0.00;;;;;;;;;;1724913;28;20266;-69
2022/01/06 04:26:02;;;;;;;0.10;0.10;;;;;;;;;;1724153;28;20297;-69
2022/01/06 04:26:53;;;;;;;0.10;0.10;;;;;;;;;;1725097;28;20212;-70
2022/01/06 04:27:45;;;;;;;0.10;0.10;;;;;;;;;;1724919;28;20291;-70
2022/01/06 04:28:37;;;;;;;0.10;0.10;;;;;;;;;;1724130;28;20206;-70
2022/01/06 04:29:29;;;;;;;0.00;0.00;;;;;;;;;;1725034;28;20548;-70
2022/01/06 04:30:20;;;;;;;0.40;0.40;;;;;;;;;;1724322;28;20208;-69
2022/01/06 04:31:13;;;;;;;0.10;0.10;;;;;;;;;;1724730;28;20236;-69
2022/01/06 04:32:04;;;;;;;0.00;0.00;;;;;;;;;;1724815;28;20219;-70
2022/01/06 04:32:56;;;;;;;0.20;0.20;;;;;;;;;;1725391;28;20218;-69
2022/01/06 04:33:47;;;;;;;0.00;0.00;;;;;;;;;;1724866;28;20235;-69
2022/01/06 04:34:40;;;;;;;0.03;0.03;;;;;;;;;;1724811;28;20193;-69
2022/01/06 04:35:31;;;;;;;0.00;0.00;;;;;;;;;;1723154;28;20543;-69
2022/01/06 04:36:23;;;;;;;0.10;0.10;;;;;;;;;;1725414;28;20213;-69
2022/01/06 04:37:15;;;;;;;0.10;0.10;;;;;;;;;;1725014;28;20217;-69
2022/01/06 04:38:07;;;;;;;0.17;0.17;;;;;;;;;;1725422;28;20208;-69
2022/01/06 04:38:58;;;;;;;0.00;0.00;;;;;;;;;;1724859;28;20231;-69
2022/01/06 04:39:50;;;;;;;0.00;0.00;;;;;;;;;;1725588;28;20211;-69
2022/01/06 04:40:43;;;;;;;0.10;0.10;;;;;;;;;;1723716;28;20546;-70
2022/01/06 04:41:35;;;;;;;0.10;0.10;;;;;;;;;;1725132;28;20513;-70
2022/01/06 04:42:26;;;;;;;0.10;0.10;;;;;;;;;;1724772;28;20208;-70
2022/01/06 04:43:18;;;;;;;0.00;0.00;;;;;;;;;;1725237;28;20205;-70
2022/01/06 04:44:09;;;;;;;0.10;0.10;;;;;;;;;;1725330;28;20211;-70
2022/01/06 04:45:02;;;;;;;0.10;0.10;;;;;;;;;;1724958;28;20228;-70
2022/01/06 04:45:53;;;;;;;0.05;0.05;;;;;;;;;;1723415;28;20374;-69
2022/01/06 04:46:45;;;;;;;0.00;0.00;;;;;;;;;;1724910;28;20213;-69
2022/01/06 04:47:37;;;;;;;0.10;0.10;;;;;;;;;;1724609;28;20537;-69
2022/01/06 04:48:29;;;;;;;0.00;0.00;;;;;;;;;;1725010;28;20210;-69
2022/01/06 04:49:22;;;;;;;0.00;0.00;;;;;;;;;;1724960;28;20264;-69
2022/01/06 04:50:14;;;;;;;0.20;0.20;;;;;;;;;;1725315;28;20208;-69
2022/01/06 04:51:05;;;;;;;0.17;0.17;;;;;;;;;;1724255;28;20551;-70
2022/01/06 04:51:57;;;;;;;0.00;0.00;;;;;;;;;;1722164;28;20593;-70
2022/01/06 04:52:49;;;;;;;0.10;0.10;;;;;;;;;;1724149;28;20211;-70
2022/01/06 04:53:41;;;;;;;0.00;0.00;;;;;;;;;;1724303;28;20259;-70
2022/01/06 04:54:32;;;;;;;0.10;0.10;;;;;;;;;;1725302;28;20200;-70
2022/01/06 04:55:24;;;;;;;0.05;0.05;;;;;;;;;;1722238;28;20196;-69
2022/01/06 04:56:17;;;;;;;0.10;0.10;;;;;;;;;;1725435;28;20331;-69
2022/01/06 04:57:09;;;;;;;0.10;0.10;;;;;;;;;;1724799;28;20205;-69
2022/01/06 04:58:01;;;;;;;0.10;0.10;;;;;;;;;;1722642;28;20624;-69
2022/01/06 04:58:53;;;;;;;0.10;0.10;;;;;;;;;;1724876;28;20229;-69
2022/01/06 04:59:44;;;;;;;0.10;0.10;;;;;;;;;;1725050;28;20258;-69
2022/01/06 05:00:36;;;;;;;0.13;0.13;;;;;;;;;;1723942;28;20217;-69
2022/01/06 05:01:28;;;;;;;0.10;0.10;;;;;;;;;;1725402;28;20601;-69
2022/01/06 05:02:20;;;;;;;0.10;0.10;;;;;;;;;;1725474;28;20263;-70
2022/01/06 05:03:11;;;;;;;0.00;0.00;;;;;;;;;;1725430;28;20204;-69
2022/01/06 05:04:03;;;;;;;0.10;0.10;;;;;;;;;;1724950;28;20215;-69
2022/01/06 05:04:54;;;;;;;0.00;0.00;;;;;;;;;;1725436;28;20210;-69
2022/01/06 05:05:47;;;;;;;0.15;0.15;;;;;;;;;;1723423;28;20238;-69
2022/01/06 05:06:38;;;;;;;0.00;0.00;;;;;;;;;;1725309;28;20234;-69
2022/01/06 05:07:32;;;;;;;0.10;0.10;;;;;;;;;;1725273;28;20204;-69
2022/01/06 05:08:23;;;;;;;0.00;0.00;;;;;;;;;;1725279;28;20295;-69
2022/01/06 05:09:15;;;;;;;0.10;0.10;;;;;;;;;;1725283;28;20208;-69
2022/01/06 05:10:07;;;;;;;0.10;0.10;;;;;;;;;;1724769;28;20212;-69
2022/01/06 05:10:59;;;;;;;0.00;0.00;;;;;;;;;;1724064;28;20597;-69
2022/01/06 05:11:52;;;;;;;0.15;0.15;;;;;;;;;;1723884;28;20205;-69
2022/01/06 05:12:44;;;;;;;0.13;0.13;;;;;;;;;;1725407;28;20292;-69
2022/01/06 05:13:35;;;;;;;0.17;0.17;;;;;;;;;;1724912;28;20542;-69
2022/01/06 05:14:28;;;;;;;0.20;0.20;;;;;;;;;;1725361;28;20323;-69
2022/01/06 05:15:19;;;;;;;0.00;0.00;;;;;;;;;;1725234;28;20224;-69
2022/01/06 05:16:11;;;;;;;0.15;0.15;;;;;;;;;;1724916;28;20238;-70
2022/01/06 05:17:02;;;;;;;0.22;0.22;;;;;;;;;;1725101;28;20546;-70
2022/01/06 05:17:55;;;;;;;0.10;0.10;;;;;;;;;;1724518;28;20642;-70
2022/01/06 05:18:46;;;;;;;0.00;0.00;;;;;;;;;;1724874;28;20212;-70
2022/01/06 05:19:38;;;;;;;0.20;0.20;;;;;;;;;;1725701;28;20197;-70
2022/01/06 05:20:30;;;;;;;0.00;0.00;;;;;;;;;;1723944;28;20196;-69
2022/01/06 05:21:22;;;;;;;0.10;0.10;;;;;;;;;;1722461;28;20204;-69